Time;durP1;ratioP1;P1;durP2;ratioP2;P2;SDS_P1;SDS_P2;PMS_P1;PMS_P2;Temp;Humidity;BMP_temperature;BMP_pressure;BME280_temperature;BME280_humidity;BME280_pressure;Samples;Min_cycle;Max_cycle;Signal;HPM_P1;HPM_P2
2023/04/10 00:00:21;;;;;;;3.63;1.30;;;11.60;99.90;;;;;;5051115;28;20099;-70
2023/04/10 00:02:47;;;;;;;;;;;11.60;99.90;;;;;;5050994;28;20031;-69
2023/04/10 00:05:13;;;;;;;3.30;1.23;;;11.70;99.90;;;;;;5032704;28;19904;-71
2023/04/10 00:07:39;;;;;;;2.47;1.10;;;11.70;99.90;;;;;;5050539;28;20117;-70
2023/04/10 00:10:05;;;;;;;3.47;1.20;;;11.70;99.90;;;;;;5050957;28;20046;-70
2023/04/10 00:12:31;;;;;;;2.00;0.90;;;11.70;99.90;;;;;;5032515;28;20075;-70
2023/04/10 00:14:58;;;;;;;2.40;1.02;;;11.70;99.90;;;;;;5050925;28;20096;-71
2023/04/10 00:17:24;;;;;;;2.63;1.00;;;11.70;99.90;;;;;;5050315;28;20550;-70
2023/04/10 00:19:50;;;;;;;2.93;1.20;;;11.70;99.90;;;;;;5050333;28;20057;-71
2023/04/10 00:22:17;;;;;;;2.83;1.13;;;11.70;99.90;;;;;;5050554;28;20028;-72
2023/04/10 00:24:43;;;;;;;2.85;1.30;;;11.80;99.90;;;;;;5050669;28;20028;-72
2023/04/10 00:27:09;;;;;;;2.53;1.02;;;11.80;99.90;;;;;;5050557;28;20029;-72
2023/04/10 00:29:35;;;;;;;2.13;1.05;;;11.70;99.90;;;;;;5050542;28;20033;-71
2023/04/10 00:32:01;;;;;;;2.33;1.20;;;11.80;99.90;;;;;;5050846;28;20381;-72
2023/04/10 00:34:27;;;;;;;3.13;1.10;;;11.80;99.90;;;;;;5053289;28;20078;-71
2023/04/10 00:36:53;;;;;;;2.60;1.20;;;11.80;99.90;;;;;;5054309;28;20251;-71
2023/04/10 00:39:19;;;;;;;4.30;1.55;;;11.80;99.90;;;;;;5054297;28;20384;-72
2023/04/10 00:41:45;;;;;;;5.60;2.40;;;11.80;99.90;;;;;;5054160;28;20388;-72
2023/04/10 00:44:11;;;;;;;3.50;2.15;;;11.80;99.90;;;;;;5054163;28;20028;-71
2023/04/10 00:46:39;;;;;;;3.90;2.17;;;11.70;99.90;;;;;;5054152;28;20025;-69
2023/04/10 00:49:05;;;;;;;3.72;2.22;;;11.70;99.90;;;;;;5035630;28;20041;-70
2023/04/10 00:51:32;;;;;;;3.10;1.92;;;11.70;99.90;;;;;;5054042;28;20025;-69
2023/04/10 00:54:00;;;;;;;3.55;2.00;;;11.70;99.90;;;;;;5053613;28;20060;-71
2023/04/10 00:56:26;;;;;;;3.63;1.35;;;11.70;99.90;;;;;;5053765;28;20365;-69
2023/04/10 00:58:52;;;;;;;2.10;1.17;;;11.70;99.90;;;;;;5053736;28;20059;-69
2023/04/10 01:01:18;;;;;;;2.25;1.00;;;11.70;99.90;;;;;;5053871;28;20029;-71
2023/04/10 01:03:45;;;;;;;2.20;0.90;;;11.70;99.90;;;;;;5053583;28;20550;-70
2023/04/10 01:06:22;;;;;;;3.05;1.10;;;11.70;99.90;;;;;;5053980;28;20017;-70
2023/04/10 01:09:08;;;;;;;2.45;0.93;;;11.70;99.90;;;;;;5053774;28;20052;-69
2023/04/10 01:11:46;;;;;;;1.53;0.80;;;11.60;99.90;;;;;;5053657;28;20029;-69
2023/04/10 01:14:42;;;;;;;2.30;1.05;;;11.60;99.90;;;;;;5053839;28;20098;-70
2023/04/10 01:17:26;;;;;;;2.20;0.70;;;11.60;99.90;;;;;;5053667;28;20047;-70
2023/04/10 01:20:05;;;;;;;2.00;1.00;;;11.50;99.90;;;;;;5053074;28;20381;-70
2023/04/10 01:22:40;;;;;;;1.70;0.80;;;11.50;99.90;;;;;;5053391;28;20041;-69
2023/04/10 01:25:54;;;;;;;1.98;0.90;;;11.50;99.90;;;;;;5035216;28;20099;-70
2023/04/10 01:28:35;;;;;;;2.05;0.90;;;11.50;99.90;;;;;;4972293;28;20058;-71
2023/04/10 01:31:02;;;;;;;3.05;1.00;;;11.50;99.90;;;;;;4972450;28;20047;-68
2023/04/10 01:33:44;;;;;;;1.83;0.95;;;11.50;99.90;;;;;;4971857;28;20060;-69
2023/04/10 01:36:12;;;;;;;3.08;1.00;;;11.50;99.90;;;;;;4972507;28;20502;-70
2023/04/10 01:38:43;;;;;;;2.90;1.08;;;11.50;99.90;;;;;;4972032;28;20038;-71
2023/04/10 01:41:09;;;;;;;3.65;1.00;;;11.50;99.90;;;;;;4972113;28;20027;-71
2023/04/10 01:43:36;;;;;;;1.63;0.90;;;11.50;99.90;;;;;;4971992;28;20033;-71
2023/04/10 01:46:04;;;;;;;1.65;0.82;;;11.40;99.90;;;;;;4971421;28;20031;-69
2023/04/10 01:48:30;;;;;;;2.05;1.00;;;11.50;99.90;;;;;;4955607;28;20367;-69
2023/04/10 01:50:58;;;;;;;5.77;1.20;;;11.50;99.90;;;;;;4971825;28;20113;-70
2023/04/10 01:53:24;;;;;;;4.00;1.10;;;11.50;99.90;;;;;;4972110;28;20341;-69
2023/04/10 01:55:52;;;;;;;3.08;1.13;;;11.50;99.90;;;;;;4955685;28;20027;-69
2023/04/10 01:58:18;;;;;;;2.58;1.10;;;11.50;99.90;;;;;;4972002;28;20034;-70
2023/04/10 02:00:44;;;;;;;2.40;1.10;;;11.50;99.90;;;;;;4971817;28;20134;-70
2023/04/10 02:03:11;;;;;;;2.23;0.90;;;11.50;99.90;;;;;;4984227;28;20037;-70
2023/04/10 02:06:07;;;;;;;2.10;1.30;;;11.50;99.90;;;;;;5032580;28;20022;-68
2023/04/10 02:08:41;;;;;;;2.25;1.23;;;11.40;99.90;;;;;;5032454;28;20518;-69
2023/04/10 02:11:40;;;;;;;3.00;1.27;;;11.40;99.90;;;;;;5039490;28;20032;-68
2023/04/10 02:14:10;;;;;;;2.00;1.15;;;11.40;99.90;;;;;;5034401;28;20025;-69
2023/04/10 02:16:38;;;;;;;1.38;0.90;;;11.40;99.90;;;;;;5052547;28;20051;-70
2023/04/10 02:19:05;;;;;;;2.00;1.10;;;11.40;99.90;;;;;;5052007;28;20053;-69
2023/04/10 02:21:33;;;;;;;3.20;1.10;;;11.40;99.90;;;;;;5052342;28;20029;-70
2023/04/10 02:23:59;;;;;;;2.28;0.90;;;11.40;99.90;;;;;;5034060;28;20436;-70
2023/04/10 02:26:25;;;;;;;2.22;1.15;;;11.40;99.90;;;;;;5052443;28;20071;-70
2023/04/10 02:28:51;;;;;;;5.13;1.10;;;11.40;99.90;;;;;;5052252;28;20429;-70
2023/04/10 02:31:17;;;;;;;2.57;1.20;;;11.40;99.90;;;;;;5033818;28;20046;-69
2023/04/10 02:33:43;;;;;;;5.50;1.00;;;11.30;99.90;;;;;;5051880;28;20174;-71
2023/04/10 02:36:10;;;;;;;2.53;1.38;;;11.10;99.90;;;;;;5051846;28;20132;-71
2023/04/10 02:38:36;;;;;;;2.03;1.27;;;11.10;99.90;;;;;;5051887;28;20017;-71
2023/04/10 02:41:02;;;;;;;2.38;1.00;;;11.00;99.90;;;;;;5051797;28;20384;-71
2023/04/10 02:43:28;;;;;;;1.92;1.10;;;10.90;99.90;;;;;;5052187;28;20104;-70
2023/04/10 02:45:54;;;;;;;2.55;1.10;;;10.90;99.90;;;;;;5051747;28;20048;-69
2023/04/10 02:48:21;;;;;;;2.10;1.00;;;10.90;99.90;;;;;;5051785;28;20064;-71
2023/04/10 02:50:47;;;;;;;;;;;10.80;99.90;;;;;;5052338;28;20488;-71
2023/04/10 02:53:14;;;;;;;5.37;1.57;;;10.80;99.90;;;;;;5051784;28;19904;-71
2023/04/10 02:55:41;;;;;;;1.98;1.10;;;10.80;99.90;;;;;;5051423;28;20755;-70
2023/04/10 02:58:07;;;;;;;2.42;1.00;;;10.70;99.90;;;;;;5051537;28;20079;-70
2023/04/10 03:00:33;;;;;;;3.13;1.10;;;10.80;99.90;;;;;;5051477;28;20032;-71
2023/04/10 03:03:00;;;;;;;3.00;1.15;;;10.80;99.90;;;;;;5033234;28;20064;-70
2023/04/10 03:05:27;;;;;;;1.83;1.20;;;10.80;99.90;;;;;;5051697;28;20032;-71
2023/04/10 03:07:53;;;;;;;3.70;1.20;;;10.90;99.90;;;;;;5051719;28;20594;-71
2023/04/10 03:10:20;;;;;;;1.80;1.08;;;10.90;99.90;;;;;;5051183;28;20025;-71
2023/04/10 03:12:47;;;;;;;2.43;1.20;;;10.90;99.90;;;;;;5051690;28;20078;-70
2023/04/10 03:15:13;;;;;;;2.63;1.10;;;10.90;99.90;;;;;;5051282;28;20293;-69
2023/04/10 03:17:39;;;;;;;2.05;1.10;;;11.00;99.90;;;;;;5051443;28;20021;-70
2023/04/10 03:20:06;;;;;;;1.95;1.15;;;10.90;99.90;;;;;;5051146;28;20140;-69
2023/04/10 03:22:32;;;;;;;1.88;1.10;;;10.80;99.90;;;;;;5051387;28;20044;-71
2023/04/10 03:25:00;;;;;;;5.00;1.38;;;10.60;99.90;;;;;;5051102;28;20084;-69
2023/04/10 03:27:26;;;;;;;2.10;1.20;;;10.40;99.90;;;;;;5050919;28;20078;-69
2023/04/10 03:29:52;;;;;;;3.05;1.40;;;10.40;99.90;;;;;;5051325;28;20111;-71
2023/04/10 03:32:18;;;;;;;5.55;1.95;;;10.40;99.90;;;;;;5051403;28;20148;-70
2023/04/10 03:34:44;;;;;;;2.72;1.73;;;10.40;99.90;;;;;;5050804;28;20033;-71
2023/04/10 03:37:10;;;;;;;4.22;1.70;;;10.50;99.90;;;;;;5051400;28;20189;-71
2023/04/10 03:39:36;;;;;;;2.90;1.47;;;10.50;99.90;;;;;;5051264;28;20139;-70
2023/04/10 03:42:02;;;;;;;2.75;1.25;;;10.60;99.90;;;;;;5050930;28;20282;-70
2023/04/10 03:44:28;;;;;;;2.08;1.20;;;10.70;99.90;;;;;;5051375;28;20021;-71
2023/04/10 03:46:54;;;;;;;2.37;1.17;;;10.70;99.90;;;;;;5050983;28;20112;-69
2023/04/10 03:49:20;;;;;;;2.53;1.20;;;10.80;99.90;;;;;;5032540;28;20124;-70
2023/04/10 03:51:46;;;;;;;2.25;1.23;;;10.90;99.90;;;;;;5050984;28;20017;-70
2023/04/10 03:54:12;;;;;;;3.08;1.55;;;10.90;99.90;;;;;;5051120;28;20166;-70
2023/04/10 03:56:38;;;;;;;3.78;1.30;;;10.90;99.90;;;;;;5032765;28;20025;-70
2023/04/10 03:59:04;;;;;;;2.50;1.20;;;10.90;99.90;;;;;;5050904;28;20370;-70
2023/04/10 04:01:31;;;;;;;4.45;2.17;;;11.00;99.90;;;;;;5051180;28;20025;-71
2023/04/10 04:03:57;;;;;;;;;;;10.90;99.90;;;;;;5050930;28;20029;-69
2023/04/10 04:06:24;;;;;;;4.50;2.70;;;10.90;99.90;;;;;;5051225;28;20201;-68
2023/04/10 04:08:50;;;;;;;3.67;2.10;;;10.90;99.90;;;;;;5052688;28;20303;-69
2023/04/10 04:11:16;;;;;;;3.25;1.42;;;10.90;99.90;;;;;;5054692;28;20070;-70
2023/04/10 04:13:42;;;;;;;5.43;1.42;;;11.00;99.90;;;;;;5054983;28;20353;-69
2023/04/10 04:16:09;;;;;;;3.92;1.10;;;11.10;99.90;;;;;;5054548;28;20025;-68
2023/04/10 04:18:35;;;;;;;1.77;0.98;;;11.10;99.90;;;;;;5054113;28;20445;-70
2023/04/10 04:21:01;;;;;;;3.38;1.20;;;11.10;99.90;;;;;;5054675;28;20121;-70
2023/04/10 04:23:27;;;;;;;2.55;1.30;;;11.10;99.90;;;;;;5054426;28;20147;-70
2023/04/10 04:25:55;;;;;;;3.35;1.42;;;11.10;99.90;;;;;;5054719;28;20021;-70
2023/04/10 04:28:22;;;;;;;2.55;1.05;;;11.10;99.90;;;;;;5036127;28;20354;-70
2023/04/10 04:30:48;;;;;;;2.65;1.30;;;11.10;99.90;;;;;;5054159;28;20037;-68
2023/04/10 04:33:14;;;;;;;2.17;1.10;;;11.10;99.90;;;;;;5054005;28;20057;-69
2023/04/10 04:35:40;;;;;;;2.58;1.30;;;11.00;99.90;;;;;;5054314;28;20755;-70
2023/04/10 04:38:06;;;;;;;6.53;1.30;;;11.00;99.90;;;;;;5035995;28;20060;-70
2023/04/10 04:40:32;;;;;;;3.35;1.73;;;10.90;99.90;;;;;;5035755;28;20037;-70
2023/04/10 04:42:58;;;;;;;5.03;2.17;;;10.90;99.90;;;;;;5053884;28;20075;-70
2023/04/10 04:45:24;;;;;;;3.55;1.50;;;10.80;99.90;;;;;;5054032;28;20025;-67
2023/04/10 04:47:50;;;;;;;3.13;1.70;;;10.80;99.90;;;;;;5053854;28;20088;-70
2023/04/10 04:50:16;;;;;;;3.40;1.77;;;10.80;99.90;;;;;;5053886;28;20025;-71
2023/04/10 04:52:43;;;;;;;3.33;1.70;;;10.80;99.90;;;;;;5054221;28;20127;-69
2023/04/10 04:55:09;;;;;;;;;;;10.80;99.90;;;;;;5054455;28;20587;-69
2023/04/10 04:57:35;;;;;;;3.17;1.73;;;10.80;99.90;;;;;;5053928;28;19941;-70
2023/04/10 05:00:01;;;;;;;5.07;2.05;;;10.70;99.90;;;;;;5053805;28;20664;-70
2023/04/10 05:02:27;;;;;;;3.50;2.00;;;10.70;99.90;;;;;;5053927;28;20037;-71
2023/04/10 05:04:53;;;;;;;4.70;2.00;;;10.70;99.90;;;;;;5053558;28;20130;-71
2023/04/10 05:07:19;;;;;;;4.32;1.95;;;10.80;99.90;;;;;;5053713;28;20025;-71
2023/04/10 05:09:45;;;;;;;3.43;1.80;;;10.80;99.90;;;;;;5053483;28;20457;-70
2023/04/10 05:12:11;;;;;;;4.47;1.88;;;10.80;99.90;;;;;;5053476;28;20127;-71
2023/04/10 05:14:37;;;;;;;4.10;1.48;;;10.90;99.90;;;;;;5053565;28;20088;-71
2023/04/10 05:17:03;;;;;;;2.30;1.45;;;10.90;99.90;;;;;;5053599;28;20135;-70
2023/04/10 05:19:29;;;;;;;4.18;1.63;;;10.80;99.90;;;;;;5052016;28;20516;-71
2023/04/10 05:21:55;;;;;;;6.03;1.83;;;10.80;99.90;;;;;;5053346;28;20096;-70
2023/04/10 05:24:21;;;;;;;2.83;1.48;;;11.00;99.90;;;;;;5053705;28;20022;-70
2023/04/10 05:26:47;;;;;;;2.78;1.33;;;12.10;99.90;;;;;;5053571;28;20092;-70
2023/04/10 05:29:13;;;;;;;2.75;1.20;;;13.40;99.90;;;;;;5053197;28;20044;-71
2023/04/10 05:31:39;;;;;;;2.07;1.10;;;14.50;99.90;;;;;;5053610;28;20029;-70
2023/04/10 05:34:05;;;;;;;2.40;1.33;;;15.10;99.90;;;;;;5052986;28;20481;-71
2023/04/10 05:36:31;;;;;;;2.83;1.30;;;16.00;99.90;;;;;;5053501;28;20470;-72
2023/04/10 05:38:57;;;;;;;2.30;1.25;;;16.50;99.90;;;;;;5053169;28;20366;-71
2023/04/10 05:41:23;;;;;;;3.33;1.10;;;16.60;99.90;;;;;;5052821;28;20021;-71
2023/04/10 05:43:49;;;;;;;2.53;1.10;;;17.50;99.90;;;;;;5053049;28;20047;-71
2023/04/10 05:46:16;;;;;;;2.95;1.33;;;17.70;99.90;;;;;;5052821;28;20029;-70
2023/04/10 05:48:42;;;;;;;4.10;1.25;;;18.30;99.90;;;;;;5052806;28;20025;-71
2023/04/10 05:51:08;;;;;;;2.42;1.05;;;18.80;99.90;;;;;;5052874;28;20028;-72
2023/04/10 05:53:35;;;;;;;3.20;1.13;;;19.00;99.90;;;;;;5052934;28;20025;-71
2023/04/10 05:56:01;;;;;;;2.40;1.13;;;19.10;99.90;;;;;;5052998;28;20028;-72
2023/04/10 05:58:28;;;;;;;3.88;1.33;;;19.50;99.90;;;;;;5053114;28;20099;-72
2023/04/10 06:00:55;;;;;;;;;;;20.00;99.90;;;;;;5053055;28;20025;-72
2023/04/10 06:03:21;;;;;;;3.20;1.33;;;20.60;99.90;;;;;;5052475;28;19967;-71
2023/04/10 06:05:47;;;;;;;3.50;1.33;;;21.00;99.90;;;;;;5034426;28;20048;-72
2023/04/10 06:08:13;;;;;;;2.63;1.23;;;20.80;99.90;;;;;;5052599;28;20036;-72
2023/04/10 06:10:39;;;;;;;2.95;1.20;;;21.10;99.90;;;;;;5052342;28;20036;-72
2023/04/10 06:13:05;;;;;;;3.22;1.33;;;21.30;99.90;;;;;;5052652;28;20127;-69
2023/04/10 06:15:31;;;;;;;3.70;1.30;;;21.20;99.90;;;;;;5052356;28;20120;-71
2023/04/10 06:17:57;;;;;;;3.28;1.33;;;21.70;99.90;;;;;;5052521;28;20051;-69
2023/04/10 06:20:24;;;;;;;4.47;1.40;;;22.10;99.90;;;;;;5052417;28;20057;-70
2023/04/10 06:22:51;;;;;;;3.05;1.20;;;21.40;99.90;;;;;;5052771;28;20056;-72
2023/04/10 06:25:17;;;;;;;4.32;1.50;;;21.80;99.90;;;;;;5052446;28;20036;-72
2023/04/10 06:27:43;;;;;;;2.80;1.13;;;22.10;99.90;;;;;;5052465;28;20074;-71
2023/04/10 06:30:10;;;;;;;3.75;1.23;;;22.50;99.90;;;;;;5052375;28;20081;-72
2023/04/10 06:32:36;;;;;;;4.00;1.30;;;23.00;99.90;;;;;;5051904;28;20176;-72
2023/04/10 06:35:02;;;;;;;3.25;1.40;;;22.40;99.90;;;;;;5052246;28;20116;-71
2023/04/10 06:37:31;;;;;;;3.60;1.23;;;23.10;99.90;;;;;;5052300;28;20031;-72
2023/04/10 06:40:08;;;;;;;3.60;1.05;;;23.10;99.90;;;;;;5052287;28;20052;-72
2023/04/10 06:42:36;;;;;;;2.20;1.20;;;22.90;99.90;;;;;;5052127;28;20493;-71
2023/04/10 06:45:03;;;;;;;3.25;1.20;;;22.70;99.90;;;;;;5052175;28;20103;-72
2023/04/10 06:47:30;;;;;;;3.67;1.10;;;22.50;99.90;;;;;;5034081;28;20029;-71
2023/04/10 06:49:56;;;;;;;3.00;1.23;;;22.70;99.90;;;;;;5033904;28;20094;-71
2023/04/10 06:52:22;;;;;;;3.35;1.27;;;23.60;99.90;;;;;;5052051;28;20025;-72
2023/04/10 06:54:48;;;;;;;2.65;1.25;;;23.50;99.90;;;;;;5052161;28;20040;-72
2023/04/10 06:57:17;;;;;;;3.85;1.40;;;23.70;99.90;;;;;;5051715;28;20059;-72
2023/04/10 06:59:44;;;;;;;3.25;1.20;;;24.30;99.90;;;;;;5033864;28;20120;-71
2023/04/10 07:02:10;;;;;;;3.88;1.30;;;24.20;99.90;;;;;;5034078;28;20042;-72
2023/04/10 07:04:36;;;;;;;3.30;1.40;;;24.20;99.90;;;;;;5051666;28;20036;-72
2023/04/10 07:07:02;;;;;;;4.30;1.30;;;23.70;99.90;;;;;;5051809;28;20037;-72
2023/04/10 07:09:29;;;;;;;3.15;1.20;;;24.00;99.90;;;;;;5033722;28;20036;-72
2023/04/10 07:11:56;;;;;;;4.00;1.23;;;24.40;99.90;;;;;;5051153;28;20029;-67
2023/04/10 07:14:21;;;;;;;;;;;24.50;99.90;;;;;;5052116;28;20085;-69
2023/04/10 07:16:48;;;;;;;2.85;1.10;;;24.30;99.90;;;;;;5051516;28;19984;-69
2023/04/10 07:19:14;;;;;;;3.22;0.90;;;24.90;99.90;;;;;;5051114;28;20045;-70
2023/04/10 07:21:40;;;;;;;3.40;1.10;;;25.00;99.90;;;;;;5051867;28;20487;-70
2023/04/10 07:24:07;;;;;;;2.35;0.90;;;24.90;99.90;;;;;;5051376;28;20094;-71
2023/04/10 07:26:32;;;;;;;;;;;25.20;99.90;;;;;;5033728;28;20132;-69
2023/04/10 07:28:58;;;;;;;4.90;1.70;;;27.00;98.80;;;;;;5051161;28;19968;-70
2023/04/10 07:31:25;;;;;;;5.85;2.00;;;27.50;99.20;;;;;;5051522;28;20449;-68
2023/04/10 07:33:51;;;;;;;6.90;2.35;;;25.20;99.90;;;;;;5051270;28;20108;-71
2023/04/10 07:36:17;;;;;;;6.13;2.70;;;24.80;99.90;;;;;;5051707;28;20056;-72
2023/04/10 07:38:43;;;;;;;9.38;2.85;;;24.40;99.90;;;;;;5051191;28;20028;-69
2023/04/10 07:41:10;;;;;;;5.93;2.70;;;23.40;99.90;;;;;;5051245;28;20017;-70
2023/04/10 07:43:37;;;;;;;5.72;2.80;;;23.20;99.90;;;;;;5050327;28;20441;-69
2023/04/10 07:46:03;;;;;;;4.72;2.03;;;23.10;99.90;;;;;;5051520;28;20476;-70
2023/04/10 07:48:29;;;;;;;3.55;2.10;;;22.70;99.90;;;;;;5051279;28;20025;-69
2023/04/10 07:50:55;;;;;;;6.57;2.58;;;21.50;99.90;;;;;;5050888;28;20481;-69
2023/04/10 07:53:21;;;;;;;7.72;2.13;;;21.80;99.90;;;;;;5051207;28;20052;-70
2023/04/10 07:55:49;;;;;;;5.80;2.00;;;22.00;99.90;;;;;;5051228;28;20025;-70
2023/04/10 07:58:16;;;;;;;4.50;1.85;;;22.50;99.90;;;;;;5050876;28;20138;-69
2023/04/10 08:00:42;;;;;;;5.85;1.83;;;22.60;99.90;;;;;;5051268;28;20025;-71
2023/04/10 08:03:08;;;;;;;7.85;2.00;;;22.70;99.90;;;;;;5051130;28;20017;-71
2023/04/10 08:05:35;;;;;;;3.85;2.20;;;22.50;99.90;;;;;;5051358;28;20035;-71
2023/04/10 08:08:01;;;;;;;5.32;2.17;;;22.60;99.90;;;;;;5050708;28;20024;-70
2023/04/10 08:10:27;;;;;;;5.72;2.53;;;22.50;99.90;;;;;;5050491;28;20032;-70
2023/04/10 08:12:53;;;;;;;8.00;2.40;;;22.10;99.90;;;;;;5051126;28;20507;-70
2023/04/10 08:15:19;;;;;;;5.97;2.40;;;22.50;99.90;;;;;;5051249;28;20033;-70
2023/04/10 08:17:45;;;;;;;5.60;2.20;;;22.30;99.90;;;;;;5032823;28;20047;-69
2023/04/10 08:20:11;;;;;;;5.03;2.05;;;21.60;99.90;;;;;;5050814;28;20056;-70
2023/04/10 08:22:37;;;;;;;3.75;1.50;;;21.80;99.90;;;;;;5051417;28;20354;-70
2023/04/10 08:25:05;;;;;;;8.00;1.98;;;21.30;99.90;;;;;;5050778;28;20057;-70
2023/04/10 08:27:31;;;;;;;4.68;1.95;;;21.40;99.90;;;;;;5050835;28;20488;-71
2023/04/10 08:29:57;;;;;;;4.18;2.30;;;21.30;99.90;;;;;;5050675;28;20061;-70
2023/04/10 08:32:25;;;;;;;4.55;1.67;;;21.60;99.90;;;;;;5050899;28;20096;-70
2023/04/10 08:34:51;;;;;;;5.68;1.67;;;22.00;99.90;;;;;;5050926;28;20389;-70
2023/04/10 08:37:18;;;;;;;4.47;1.80;;;21.90;99.90;;;;;;5051183;28;20067;-71
2023/04/10 08:39:44;;;;;;;5.28;1.77;;;21.30;99.90;;;;;;5050961;28;20025;-71
2023/04/10 08:42:10;;;;;;;4.60;1.70;;;21.30;99.90;;;;;;5050797;28;20104;-70
2023/04/10 08:44:37;;;;;;;3.05;1.70;;;20.70;99.90;;;;;;5050694;28;20076;-70
2023/04/10 08:47:05;;;;;;;5.63;1.73;;;20.30;99.90;;;;;;5032604;28;20418;-69
2023/04/10 08:50:02;;;;;;;5.80;1.75;;;20.50;99.90;;;;;;5050740;28;20033;-70
2023/04/10 08:52:30;;;;;;;7.10;1.90;;;20.40;99.90;;;;;;5047218;28;20113;-70
2023/04/10 08:54:58;;;;;;;5.43;1.90;;;20.80;99.90;;;;;;5052418;28;20048;-69
2023/04/10 08:57:26;;;;;;;5.88;1.75;;;21.10;99.90;;;;;;5054634;28;20067;-70
2023/04/10 08:59:52;;;;;;;3.45;1.35;;;21.20;99.90;;;;;;5054278;28;20021;-69
2023/04/10 09:02:19;;;;;;;4.82;1.67;;;20.90;99.90;;;;;;5053682;28;20028;-70
2023/04/10 09:04:49;;;;;;;3.75;1.52;;;21.20;99.90;;;;;;5053854;28;20056;-69
2023/04/10 09:07:15;;;;;;;3.03;1.38;;;21.30;99.90;;;;;;5053515;28;20028;-70
2023/04/10 09:09:42;;;;;;;3.88;1.48;;;21.30;99.90;;;;;;5053508;28;20134;-69
2023/04/10 09:12:08;;;;;;;5.45;1.50;;;21.10;99.90;;;;;;5053822;28;20112;-69
2023/04/10 09:14:37;;;;;;;5.15;1.50;;;20.70;99.90;;;;;;5053695;28;20044;-69
2023/04/10 09:17:17;;;;;;;3.65;1.77;;;19.90;99.90;;;;;;5053854;28;20025;-68
2023/04/10 09:19:45;;;;;;;6.25;1.80;;;19.60;99.90;;;;;;5053471;28;20044;-69
2023/04/10 09:22:12;;;;;;;3.70;1.73;;;18.70;99.90;;;;;;5053857;28;20032;-69
2023/04/10 09:24:40;;;;;;;4.28;1.83;;;18.90;99.90;;;;;;5035495;28;20381;-71
2023/04/10 09:27:06;;;;;;;4.97;1.88;;;19.50;99.90;;;;;;5035457;28;20392;-70
2023/04/10 09:29:47;;;;;;;6.03;1.92;;;19.70;99.90;;;;;;5053554;28;20395;-69
2023/04/10 09:32:34;;;;;;;4.07;1.75;;;19.20;99.90;;;;;;5053591;28;20021;-70
2023/04/10 09:35:00;;;;;;;6.38;1.55;;;19.50;99.90;;;;;;5052952;28;20103;-69
2023/04/10 09:37:33;;;;;;;4.95;1.80;;;19.70;99.90;;;;;;5053772;28;20371;-70
2023/04/10 09:39:59;;;;;;;6.60;1.90;;;19.90;99.90;;;;;;5053571;28;20441;-70
2023/04/10 09:42:33;;;;;;;4.07;1.60;;;19.90;99.90;;;;;;5053260;28;20025;-69
2023/04/10 09:45:00;;;;;;;7.22;1.63;;;20.00;99.90;;;;;;5053256;28;20035;-68
2023/04/10 09:47:27;;;;;;;7.90;1.73;;;20.20;99.90;;;;;;5053107;28;20100;-69
2023/04/10 09:49:59;;;;;;;4.15;1.55;;;19.70;99.90;;;;;;5052999;28;20033;-69
2023/04/10 09:52:29;;;;;;;2.80;1.55;;;19.50;99.90;;;;;;5053343;28;20108;-69
2023/04/10 09:55:08;;;;;;;3.47;1.48;;;19.90;99.90;;;;;;5053423;28;20033;-69
2023/04/10 09:57:35;;;;;;;5.13;1.73;;;19.70;99.90;;;;;;5053436;28;20358;-70
2023/04/10 10:00:07;;;;;;;6.28;1.42;;;19.80;99.90;;;;;;5052967;28;20512;-70
2023/04/10 10:02:40;;;;;;;3.78;1.60;;;19.50;99.90;;;;;;5052978;28;20417;-68
2023/04/10 10:05:07;;;;;;;3.67;1.75;;;20.00;99.90;;;;;;5052814;28;20028;-70
2023/04/10 10:07:33;;;;;;;3.92;1.67;;;19.90;99.90;;;;;;5052195;28;20029;-69
2023/04/10 10:10:01;;;;;;;5.63;2.00;;;19.70;99.90;;;;;;5053372;28;20044;-69
2023/04/10 10:12:36;;;;;;;4.90;1.77;;;19.80;99.90;;;;;;5052727;28;20437;-69
2023/04/10 10:15:11;;;;;;;6.47;2.30;;;20.10;99.90;;;;;;5053194;28;20040;-70
2023/04/10 10:18:03;;;;;;;8.43;2.38;;;20.00;99.90;;;;;;5053156;28;20445;-70
2023/04/10 10:20:31;;;;;;;9.32;3.28;;;20.20;99.90;;;;;;5052303;28;20037;-70
2023/04/10 10:22:58;;;;;;;6.68;3.03;;;20.50;99.90;;;;;;5052873;28;20357;-69
2023/04/10 10:25:25;;;;;;;5.78;2.03;;;20.20;99.90;;;;;;5052513;28;20025;-71
2023/04/10 10:27:54;;;;;;;6.18;2.75;;;20.00;99.90;;;;;;5052363;28;20388;-71
2023/04/10 10:30:21;;;;;;;4.47;1.90;;;20.10;99.90;;;;;;5052413;28;20029;-71
2023/04/10 10:32:49;;;;;;;3.80;2.00;;;20.20;99.90;;;;;;5052552;28;20052;-71
2023/04/10 10:35:15;;;;;;;6.10;2.08;;;20.30;99.90;;;;;;5052273;28;20033;-70
2023/04/10 10:37:44;;;;;;;;;;;20.20;99.90;;;;;;5053122;28;20024;-69
2023/04/10 10:40:24;;;;;;;6.03;2.20;;;20.20;99.90;;;;;;5052348;28;20359;-71
2023/04/10 10:43:04;;;;;;;5.80;2.42;;;19.80;99.90;;;;;;5052323;28;20123;-70
2023/04/10 10:45:36;;;;;;;5.45;1.65;;;20.20;99.90;;;;;;5052284;28;20051;-70
2023/04/10 10:48:02;;;;;;;6.10;2.10;;;19.90;99.90;;;;;;5052143;28;20052;-70
2023/04/10 10:50:57;;;;;;;8.45;2.72;;;19.60;99.90;;;;;;5033844;28;20041;-70
2023/04/10 10:53:43;;;;;;;11.27;2.70;;;19.30;99.90;;;;;;5049558;28;20548;-69
2023/04/10 10:56:19;;;;;;;9.50;2.38;;;19.00;99.90;;;;;;5052018;28;20025;-69
2023/04/10 10:58:50;;;;;;;6.57;2.00;;;19.20;99.90;;;;;;5051929;28;20049;-70
2023/04/10 11:01:17;;;;;;;8.45;2.88;;;19.30;99.90;;;;;;5033672;28;20047;-70
2023/04/10 11:03:44;;;;;;;;;;;19.10;99.90;;;;;;5052172;28;20580;-70
2023/04/10 11:06:18;;;;;;;7.95;2.85;;;19.00;99.90;;;;;;5051671;28;19920;-69
2023/04/10 11:08:46;;;;;;;7.85;3.08;;;19.30;99.90;;;;;;5051744;28;20445;-69
2023/04/10 11:11:16;;;;;;;5.20;2.40;;;19.60;99.90;;;;;;5033753;28;20106;-69
2023/04/10 11:14:05;;;;;;;9.05;2.78;;;19.60;99.90;;;;;;5051420;28;20114;-68
2023/04/10 11:16:38;;;;;;;5.57;2.65;;;19.80;99.90;;;;;;5051563;28;20446;-70
2023/04/10 11:19:07;;;;;;;6.40;2.75;;;19.90;99.90;;;;;;5051313;28;20075;-70
2023/04/10 11:21:34;;;;;;;10.18;2.88;;;20.00;99.90;;;;;;5051654;28;20079;-70
2023/04/10 11:24:02;;;;;;;11.68;4.00;;;19.90;99.90;;;;;;5051789;28;20071;-70
2023/04/10 11:26:35;;;;;;;7.20;3.30;;;20.20;99.90;;;;;;5051192;28;20025;-69
2023/04/10 11:29:27;;;;;;;12.32;4.22;;;20.20;99.90;;;;;;5033395;28;20124;-68
2023/04/10 11:32:00;;;;;;;10.00;3.30;;;20.00;99.90;;;;;;5050624;28;20032;-70
2023/04/10 11:34:29;;;;;;;11.75;3.10;;;20.00;99.90;;;;;;5051028;28;20083;-69
2023/04/10 11:36:55;;;;;;;8.90;3.83;;;19.60;99.90;;;;;;5051242;28;20392;-70
2023/04/10 11:39:21;;;;;;;8.10;2.65;;;20.00;99.90;;;;;;5051123;28;20029;-69
2023/04/10 11:41:52;;;;;;;10.95;3.28;;;19.90;99.90;;;;;;5051101;28;20025;-70
2023/04/10 11:44:27;;;;;;;12.70;2.65;;;19.90;99.90;;;;;;5051535;28;20032;-67
2023/04/10 11:46:55;;;;;;;7.43;2.35;;;19.90;99.90;;;;;;5051571;28;20032;-69
2023/04/10 11:49:27;;;;;;;9.38;2.75;;;20.00;99.90;;;;;;5051185;28;20209;-68
2023/04/10 11:51:53;;;;;;;6.97;2.40;;;20.00;99.90;;;;;;5051123;28;20025;-68
2023/04/10 11:54:22;;;;;;;12.20;2.53;;;20.40;99.90;;;;;;5051427;28;20025;-68
2023/04/10 11:57:08;;;;;;;8.23;2.00;;;20.20;99.90;;;;;;5051103;28;20385;-70
2023/04/10 11:59:34;;;;;;;8.82;2.65;;;19.90;99.90;;;;;;5051222;28;20112;-70
2023/04/10 12:02:09;;;;;;;9.50;2.00;;;20.00;99.90;;;;;;5051553;28;20070;-69
2023/04/10 12:04:36;;;;;;;7.63;1.85;;;20.20;99.90;;;;;;5051127;28;20029;-69
2023/04/10 12:07:02;;;;;;;8.80;2.50;;;20.30;99.90;;;;;;5051126;28;20048;-70
2023/04/10 12:09:28;;;;;;;12.07;2.92;;;20.40;99.90;;;;;;5032884;28;20132;-69
2023/04/10 12:11:59;;;;;;;6.80;2.63;;;20.80;99.90;;;;;;5032806;28;20017;-68
2023/04/10 12:14:34;;;;;;;9.50;2.40;;;20.80;99.90;;;;;;5051032;28;20048;-70
2023/04/10 12:17:01;;;;;;;4.45;1.83;;;20.70;99.90;;;;;;5051016;28;20013;-69
2023/04/10 12:19:28;;;;;;;4.97;1.98;;;20.60;99.90;;;;;;5032366;28;20049;-69
2023/04/10 12:21:57;;;;;;;9.18;2.05;;;20.50;99.90;;;;;;5032785;28;20567;-70
2023/04/10 12:24:43;;;;;;;7.55;2.60;;;20.70;99.90;;;;;;5051059;28;20295;-69
2023/04/10 12:27:16;;;;;;;6.47;2.30;;;20.50;99.90;;;;;;5051070;28;20127;-69
2023/04/10 12:29:43;;;;;;;5.57;2.10;;;20.60;99.90;;;;;;5052172;28;20033;-70
2023/04/10 12:32:09;;;;;;;7.07;2.40;;;20.50;99.90;;;;;;5055101;28;20457;-69
2023/04/10 12:34:39;;;;;;;6.45;2.22;;;20.70;99.90;;;;;;5054558;28;20418;-70
2023/04/10 12:37:06;;;;;;;6.97;2.10;;;21.00;99.90;;;;;;5054630;28;20053;-70
2023/04/10 12:39:32;;;;;;;5.85;2.22;;;21.30;99.90;;;;;;5054384;28;20040;-68
2023/04/10 12:42:18;;;;;;;7.93;2.08;;;20.70;99.90;;;;;;5054405;28;20129;-70
2023/04/10 12:44:58;;;;;;;12.18;2.17;;;20.40;99.90;;;;;;5054349;28;20021;-69
2023/04/10 12:47:26;;;;;;;8.70;2.15;;;20.40;99.90;;;;;;5054432;28;20461;-69
2023/04/10 12:50:04;;;;;;;11.65;1.80;;;20.40;99.90;;;;;;5053994;28;20025;-69
2023/04/10 12:52:30;;;;;;;7.97;2.38;;;20.40;99.90;;;;;;5054105;28;20029;-69
2023/04/10 12:55:25;;;;;;;5.07;2.00;;;20.60;99.90;;;;;;5054320;28;20029;-69